Weather at Magma Farm Landing Strip [CLOSED]

Public forecast

Using degrees Fahrenheit for public forecast. Weather courtesy of forecast.io.

Closest aviation weather report (METAR) to Magma Farm Landing Strip

Closest report is Coolidge Municipal Airport, 12.0 nm (22.2 km) S. Retrieved 2021/06/19 21:30 UTC (25 minutes ago):

KP08 192130Z AUTO 27008G17KT 10SM CLR 44/07 A2964 RMK AO2

Closest aviation forecast (TAF) to Magma Farm Landing Strip

Closest forecast is Phoenix-Mesa-Gateway Airport, 15.8 nm (29.3 km) NW. Retrieved 2021/06/19 18:42 UTC (3 hours ago):

TAF KIWA 191741Z 1918/2018 21008KT P6SM SKC FM191900 25012KT P6SM SKC FM192100 28013G20KT P6SM SKC FM200300 22010KT P6SM SKC FM200800 09005KT P6SM SKC FM201700 21010KT P6SM SKC